RYR8RD EBCI-LFMU
Flight info
| Callsign | RYR8RD |
|---|---|
| Flight time | 1h 13m |
| Altitude | 37000 |
| Route | CIV Y50 REM B3 VATRI G40 TRO B373 MOU A27 MEN J27 AFRIC |
| Aircraft | B738/M-SDE2E3FGHIRWXY/LB1 |
Departure
| Time | 2026-04-21 14:04 |
|---|---|
| Airport | Brussels South Charleroi Airport (EBCI) |
Arrival
| Time | 2026-04-21 15:18 |
|---|---|
| Airport | Béziers Vias airport (LFMU) |
| Time | Latitude | Longitude | Altitude | Speed | Heading |
|---|---|---|---|---|---|
| 2026-04-21 13:43 | 50.46806 | 4.46873 | 581 ft | 0 kts | 335° |
| 2026-04-21 13:52 | 50.46802 | 4.46876 | 581 ft | 2 kts | 334° |
| 2026-04-21 13:52 | 50.46786 | 4.46890 | 583 ft | 3 kts | 323° |
| 2026-04-21 13:52 | 50.46771 | 4.46911 | 587 ft | 3 kts | 302° |
| 2026-04-21 13:53 | 50.46764 | 4.46937 | 584 ft | 3 kts | 266° |
| 2026-04-21 13:53 | 50.46766 | 4.46953 | 583 ft | 0 kts | 245° |
| 2026-04-21 13:56 | 50.46765 | 4.46950 | 583 ft | 1 kts | 245° |
| 2026-04-21 13:56 | 50.46758 | 4.46925 | 582 ft | 3 kts | 243° |
| 2026-04-21 13:56 | 50.46742 | 4.46878 | 583 ft | 5 kts | 238° |
| 2026-04-21 13:57 | 50.46723 | 4.46808 | 584 ft | 11 kts | 247° |
| 2026-04-21 13:57 | 50.46690 | 4.46692 | 583 ft | 12 kts | 245° |
| 2026-04-21 13:57 | 50.46654 | 4.46574 | 587 ft | 9 kts | 236° |
| 2026-04-21 13:57 | 50.46604 | 4.46537 | 584 ft | 9 kts | 161° |
| 2026-04-21 13:58 | 50.46546 | 4.46552 | 587 ft | 9 kts | 193° |
| 2026-04-21 13:58 | 50.46512 | 4.46483 | 582 ft | 8 kts | 247° |
| 2026-04-21 13:58 | 50.46488 | 4.46401 | 585 ft | 8 kts | 244° |
| 2026-04-21 13:58 | 50.46465 | 4.46320 | 585 ft | 9 kts | 248° |
| 2026-04-21 13:59 | 50.46438 | 4.46222 | 589 ft | 11 kts | 245° |
| 2026-04-21 13:59 | 50.46406 | 4.46119 | 589 ft | 10 kts | 244° |
| 2026-04-21 13:59 | 50.46377 | 4.46020 | 595 ft | 10 kts | 247° |
| 2026-04-21 13:59 | 50.46350 | 4.45922 | 601 ft | 10 kts | 246° |
| 2026-04-21 14:00 | 50.46322 | 4.45826 | 606 ft | 9 kts | 245° |
| 2026-04-21 14:00 | 50.46295 | 4.45734 | 610 ft | 9 kts | 246° |
| 2026-04-21 14:00 | 50.46270 | 4.45643 | 616 ft | 9 kts | 246° |
| 2026-04-21 14:00 | 50.46244 | 4.45555 | 619 ft | 9 kts | 245° |
| 2026-04-21 14:01 | 50.46217 | 4.45461 | 620 ft | 10 kts | 245° |
| 2026-04-21 14:01 | 50.46184 | 4.45348 | 619 ft | 12 kts | 245° |
| 2026-04-21 14:01 | 50.46147 | 4.45220 | 626 ft | 14 kts | 245° |
| 2026-04-21 14:01 | 50.46100 | 4.45058 | 628 ft | 19 kts | 245° |
| 2026-04-21 14:02 | 50.46063 | 4.44930 | 631 ft | 20 kts | 245° |
| 2026-04-21 14:02 | 50.45976 | 4.44639 | 628 ft | 23 kts | 245° |
| 2026-04-21 14:02 | 50.45900 | 4.44410 | 631 ft | 25 kts | 236° |
| 2026-04-21 14:03 | 50.45705 | 4.44023 | 621 ft | 11 kts | 228° |
| 2026-04-21 14:03 | 50.45633 | 4.44012 | 619 ft | 13 kts | 120° |
| 2026-04-21 14:03 | 50.45656 | 4.44146 | 624 ft | 17 kts | 64° |
| 2026-04-21 14:03 | 50.45787 | 4.44602 | 627 ft | 75 kts | 65° |
| 2026-04-21 14:04 | 50.46077 | 4.45596 | 630 ft | 123 kts | 65° |
| 2026-04-21 14:04 | 50.46501 | 4.46998 | 700 ft | 153 kts | 65° |
| 2026-04-21 14:04 | 50.46918 | 4.48537 | 1119 ft | 161 kts | 64° |
| 2026-04-21 14:04 | 50.47572 | 4.50131 | 1361 ft | 185 kts | 44° |
| 2026-04-21 14:05 | 50.48800 | 4.51026 | 1320 ft | 207 kts | 20° |
| 2026-04-21 14:05 | 50.49853 | 4.52317 | 1500 ft | 181 kts | 58° |
| 2026-04-21 14:05 | 50.50478 | 4.53845 | 1802 ft | 154 kts | 56° |
| 2026-04-21 14:05 | 50.51086 | 4.55219 | 2066 ft | 151 kts | 55° |
| 2026-04-21 14:06 | 50.51728 | 4.56590 | 2578 ft | 158 kts | 54° |
| 2026-04-21 14:06 | 50.52365 | 4.57964 | 3495 ft | 158 kts | 55° |
| 2026-04-21 14:06 | 50.53069 | 4.59329 | 4107 ft | 174 kts | 38° |
| 2026-04-21 14:06 | 50.54335 | 4.59857 | 4336 ft | 210 kts | 358° |
| 2026-04-21 14:07 | 50.55773 | 4.58940 | 4650 ft | 241 kts | 323° |
| 2026-04-21 14:07 | 50.56811 | 4.56692 | 5023 ft | 273 kts | 289° |
| 2026-04-21 14:07 | 50.57027 | 4.53671 | 5796 ft | 282 kts | 271° |
| 2026-04-21 14:07 | 50.57002 | 4.50560 | 6660 ft | 287 kts | 270° |
| 2026-04-21 14:08 | 50.56963 | 4.47446 | 7470 ft | 289 kts | 270° |
| 2026-04-21 14:08 | 50.56938 | 4.44272 | 8312 ft | 293 kts | 270° |
| 2026-04-21 14:08 | 50.56932 | 4.41035 | 9098 ft | 298 kts | 271° |
| 2026-04-21 14:08 | 50.56941 | 4.37778 | 9974 ft | 300 kts | 271° |
| 2026-04-21 14:09 | 50.56962 | 4.34459 | 10639 ft | 308 kts | 271° |
| 2026-04-21 14:09 | 50.56990 | 4.30967 | 10899 ft | 331 kts | 271° |
| 2026-04-21 14:09 | 50.57025 | 4.27243 | 11269 ft | 346 kts | 272° |
| 2026-04-21 14:09 | 50.57062 | 4.23414 | 11907 ft | 354 kts | 272° |
| 2026-04-21 14:10 | 50.57100 | 4.19513 | 12631 ft | 357 kts | 272° |
| 2026-04-21 14:10 | 50.57137 | 4.15598 | 13392 ft | 360 kts | 272° |
| 2026-04-21 14:10 | 50.57173 | 4.11632 | 14106 ft | 364 kts | 272° |
| 2026-04-21 14:10 | 50.57209 | 4.07634 | 14796 ft | 366 kts | 273° |
| 2026-04-21 14:11 | 50.57245 | 4.03669 | 15487 ft | 368 kts | 272° |
| 2026-04-21 14:11 | 50.57279 | 3.99625 | 16194 ft | 370 kts | 272° |
| 2026-04-21 14:11 | 50.57220 | 3.95555 | 16824 ft | 376 kts | 262° |
| 2026-04-21 14:11 | 50.56262 | 3.91735 | 17549 ft | 379 kts | 236° |
| 2026-04-21 14:12 | 50.54426 | 3.88752 | 18200 ft | 385 kts | 216° |
| 2026-04-21 14:12 | 50.52022 | 3.86842 | 18673 ft | 392 kts | 197° |
| 2026-04-21 14:12 | 50.49343 | 3.86087 | 19239 ft | 393 kts | 180° |
| 2026-04-21 14:12 | 50.46615 | 3.86279 | 19850 ft | 393 kts | 174° |
| 2026-04-21 14:13 | 50.43870 | 3.86720 | 20351 ft | 398 kts | 173° |
| 2026-04-21 14:13 | 50.41106 | 3.87243 | 20872 ft | 401 kts | 172° |
| 2026-04-21 14:13 | 50.38330 | 3.87773 | 21444 ft | 403 kts | 173° |
| 2026-04-21 14:13 | 50.35522 | 3.88287 | 21865 ft | 409 kts | 173° |
| 2026-04-21 14:14 | 50.32686 | 3.88781 | 22424 ft | 411 kts | 174° |
| 2026-04-21 14:14 | 50.29829 | 3.89257 | 22856 ft | 416 kts | 174° |
| 2026-04-21 14:14 | 50.26946 | 3.89723 | 23409 ft | 417 kts | 174° |
| 2026-04-21 14:14 | 50.24050 | 3.90183 | 23877 ft | 420 kts | 174° |
| 2026-04-21 14:15 | 50.21125 | 3.90643 | 24206 ft | 425 kts | 175° |
| 2026-04-21 14:15 | 50.19174 | 3.90948 | 24501 ft | 425 kts | 175° |
| 2026-04-21 14:15 | 50.16220 | 3.91410 | 24903 ft | 428 kts | 175° |
| 2026-04-21 14:15 | 50.13243 | 3.91875 | 25221 ft | 433 kts | 176° |
| 2026-04-21 14:16 | 50.10232 | 3.92344 | 25526 ft | 437 kts | 176° |
| 2026-04-21 14:16 | 50.07190 | 3.92818 | 25852 ft | 441 kts | 176° |
| 2026-04-21 14:16 | 50.04121 | 3.93297 | 26182 ft | 445 kts | 176° |
| 2026-04-21 14:16 | 50.01026 | 3.93779 | 26492 ft | 449 kts | 177° |
| 2026-04-21 14:17 | 49.97907 | 3.94263 | 26786 ft | 453 kts | 177° |
| 2026-04-21 14:17 | 49.94757 | 3.94753 | 27087 ft | 456 kts | 178° |
| 2026-04-21 14:17 | 49.91587 | 3.95245 | 27376 ft | 460 kts | 178° |
| 2026-04-21 14:17 | 49.88389 | 3.95740 | 27675 ft | 464 kts | 178° |
| 2026-04-21 14:18 | 49.85162 | 3.96240 | 27963 ft | 467 kts | 178° |
| 2026-04-21 14:18 | 49.81919 | 3.96741 | 28233 ft | 471 kts | 178° |
| 2026-04-21 14:18 | 49.78644 | 3.97247 | 28517 ft | 474 kts | 179° |
| 2026-04-21 14:18 | 49.75350 | 3.97755 | 28791 ft | 478 kts | 179° |
| 2026-04-21 14:19 | 49.72074 | 3.98259 | 29051 ft | 481 kts | 179° |
| 2026-04-21 14:19 | 49.68732 | 3.98773 | 29304 ft | 484 kts | 179° |
| 2026-04-21 14:19 | 49.65359 | 3.99291 | 29549 ft | 488 kts | 180° |
| 2026-04-21 14:19 | 49.61969 | 3.99810 | 29792 ft | 491 kts | 180° |
| 2026-04-21 14:20 | 49.58554 | 4.00334 | 30035 ft | 494 kts | 180° |
| 2026-04-21 14:20 | 49.55122 | 4.00859 | 30263 ft | 497 kts | 180° |
| 2026-04-21 14:20 | 49.51668 | 4.01387 | 30464 ft | 500 kts | 180° |
| 2026-04-21 14:20 | 49.48195 | 4.01918 | 30704 ft | 501 kts | 180° |
| 2026-04-21 14:21 | 49.44723 | 4.02448 | 30971 ft | 502 kts | 180° |
| 2026-04-21 14:21 | 49.41244 | 4.02978 | 31233 ft | 503 kts | 180° |
| 2026-04-21 14:21 | 49.37762 | 4.03507 | 31557 ft | 502 kts | 180° |
| 2026-04-21 14:21 | 49.34297 | 4.04034 | 31959 ft | 499 kts | 180° |
| 2026-04-21 14:22 | 49.30855 | 4.04534 | 32375 ft | 494 kts | 182° |
| 2026-04-21 14:22 | 49.27440 | 4.04733 | 32745 ft | 490 kts | 185° |
| 2026-04-21 14:22 | 49.24036 | 4.04774 | 33064 ft | 488 kts | 186° |
| 2026-04-21 14:22 | 49.20645 | 4.04779 | 33389 ft | 487 kts | 186° |
| 2026-04-21 14:23 | 49.17261 | 4.04816 | 33751 ft | 485 kts | 185° |
| 2026-04-21 14:23 | 49.13935 | 4.04887 | 34110 ft | 484 kts | 185° |
| 2026-04-21 14:23 | 49.10572 | 4.04975 | 34392 ft | 483 kts | 185° |
| 2026-04-21 14:23 | 49.07217 | 4.05068 | 34630 ft | 482 kts | 185° |
| 2026-04-21 14:24 | 49.03861 | 4.05160 | 34848 ft | 482 kts | 185° |
| 2026-04-21 14:24 | 49.00501 | 4.05251 | 35084 ft | 482 kts | 185° |
| 2026-04-21 14:24 | 48.97150 | 4.05340 | 35332 ft | 480 kts | 185° |
| 2026-04-21 14:24 | 48.93817 | 4.05427 | 35599 ft | 479 kts | 184° |
| 2026-04-21 14:25 | 48.90482 | 4.05513 | 35834 ft | 478 kts | 184° |
| 2026-04-21 14:25 | 48.87154 | 4.05599 | 36062 ft | 478 kts | 184° |
| 2026-04-21 14:25 | 48.83832 | 4.05684 | 36312 ft | 477 kts | 184° |
| 2026-04-21 14:25 | 48.80520 | 4.05770 | 36547 ft | 476 kts | 184° |
| 2026-04-21 14:26 | 48.77214 | 4.05849 | 36777 ft | 475 kts | 184° |
| 2026-04-21 14:26 | 48.73913 | 4.05909 | 37009 ft | 474 kts | 184° |
| 2026-04-21 14:26 | 48.70618 | 4.05960 | 37168 ft | 474 kts | 184° |
| 2026-04-21 14:27 | 48.64005 | 4.06063 | 37144 ft | 475 kts | 184° |
| 2026-04-21 14:27 | 48.57413 | 4.06162 | 37139 ft | 471 kts | 186° |
| 2026-04-21 14:28 | 48.51076 | 4.04812 | 37144 ft | 459 kts | 198° |
| 2026-04-21 14:28 | 48.44856 | 4.02686 | 37129 ft | 458 kts | 198° |
| 2026-04-21 14:29 | 48.38558 | 4.01001 | 37129 ft | 460 kts | 194° |
| 2026-04-21 14:29 | 48.32218 | 3.99625 | 37129 ft | 461 kts | 193° |
| 2026-04-21 14:30 | 48.25871 | 3.98228 | 37131 ft | 461 kts | 194° |
| 2026-04-21 14:30 | 48.19522 | 3.96778 | 37133 ft | 462 kts | 194° |
| 2026-04-21 14:31 | 48.13165 | 3.95304 | 37123 ft | 463 kts | 194° |
| 2026-04-21 14:31 | 48.06786 | 3.93825 | 37120 ft | 464 kts | 194° |
| 2026-04-21 14:32 | 48.00397 | 3.92349 | 37110 ft | 465 kts | 194° |
| 2026-04-21 14:32 | 47.94004 | 3.90878 | 37100 ft | 465 kts | 194° |
| 2026-04-21 14:33 | 47.87659 | 3.89422 | 37092 ft | 464 kts | 194° |
| 2026-04-21 14:33 | 47.81275 | 3.87961 | 37096 ft | 463 kts | 194° |
| 2026-04-21 14:34 | 47.74911 | 3.86508 | 37083 ft | 462 kts | 194° |
| 2026-04-21 14:34 | 47.68565 | 3.85063 | 37080 ft | 460 kts | 194° |
| 2026-04-21 14:35 | 47.62242 | 3.83626 | 37081 ft | 459 kts | 194° |
| 2026-04-21 14:35 | 47.55944 | 3.82198 | 37073 ft | 457 kts | 194° |
| 2026-04-21 14:36 | 47.49672 | 3.80779 | 37073 ft | 455 kts | 194° |
| 2026-04-21 14:36 | 47.43414 | 3.79367 | 37072 ft | 454 kts | 194° |
| 2026-04-21 14:37 | 47.37175 | 3.77962 | 37059 ft | 453 kts | 194° |
| 2026-04-21 14:37 | 47.30943 | 3.76563 | 37048 ft | 453 kts | 194° |
| 2026-04-21 14:38 | 47.24721 | 3.75168 | 37063 ft | 452 kts | 194° |
| 2026-04-21 14:38 | 47.18496 | 3.73776 | 37050 ft | 453 kts | 194° |
| 2026-04-21 14:39 | 47.12267 | 3.72387 | 37046 ft | 453 kts | 194° |
| 2026-04-21 14:39 | 47.06064 | 3.71007 | 37046 ft | 454 kts | 194° |
| 2026-04-21 14:40 | 46.99820 | 3.69621 | 37049 ft | 454 kts | 194° |
| 2026-04-21 14:40 | 46.93557 | 3.68234 | 37038 ft | 455 kts | 194° |
| 2026-04-21 14:41 | 46.87280 | 3.66848 | 37039 ft | 456 kts | 194° |
| 2026-04-21 14:41 | 46.81003 | 3.65464 | 37038 ft | 457 kts | 194° |
| 2026-04-21 14:42 | 46.74706 | 3.64080 | 37032 ft | 457 kts | 194° |
| 2026-04-21 14:42 | 46.68499 | 3.62291 | 37025 ft | 449 kts | 204° |
| 2026-04-21 14:43 | 46.62621 | 3.59421 | 37027 ft | 448 kts | 205° |
| 2026-04-21 14:43 | 46.56721 | 3.56465 | 37027 ft | 448 kts | 205° |
| 2026-04-21 14:44 | 46.50811 | 3.53564 | 37024 ft | 448 kts | 205° |
| 2026-04-21 14:44 | 46.44889 | 3.50700 | 37021 ft | 448 kts | 205° |
| 2026-04-21 14:45 | 46.38970 | 3.47853 | 37019 ft | 448 kts | 205° |
| 2026-04-21 14:45 | 46.33060 | 3.45016 | 37021 ft | 447 kts | 205° |
| 2026-04-21 14:46 | 46.27151 | 3.42185 | 37023 ft | 447 kts | 205° |
| 2026-04-21 14:46 | 46.21244 | 3.39360 | 37014 ft | 447 kts | 205° |
| 2026-04-21 14:47 | 46.15387 | 3.36566 | 37015 ft | 446 kts | 205° |
| 2026-04-21 14:47 | 46.09495 | 3.33761 | 37015 ft | 446 kts | 205° |
| 2026-04-21 14:48 | 46.03610 | 3.30966 | 37014 ft | 445 kts | 205° |
| 2026-04-21 14:48 | 45.97722 | 3.28175 | 36997 ft | 445 kts | 204° |
| 2026-04-21 14:49 | 45.91835 | 3.25391 | 36996 ft | 445 kts | 204° |
| 2026-04-21 14:49 | 45.85953 | 3.22615 | 36997 ft | 445 kts | 204° |
| 2026-04-21 14:50 | 45.81063 | 3.20316 | 36991 ft | 445 kts | 203° |
| 2026-04-21 14:50 | 45.76970 | 3.19066 | 36985 ft | 455 kts | 191° |
| 2026-04-21 14:50 | 45.73776 | 3.18862 | 36613 ft | 464 kts | 187° |
| 2026-04-21 14:50 | 45.70555 | 3.18816 | 36217 ft | 459 kts | 186° |
| 2026-04-21 14:51 | 45.67372 | 3.18805 | 35820 ft | 454 kts | 186° |
| 2026-04-21 14:51 | 45.64272 | 3.18787 | 35439 ft | 449 kts | 187° |
| 2026-04-21 14:51 | 45.61161 | 3.18749 | 35067 ft | 444 kts | 187° |
| 2026-04-21 14:51 | 45.58082 | 3.18692 | 34696 ft | 440 kts | 187° |
| 2026-04-21 14:52 | 45.55035 | 3.18624 | 34323 ft | 436 kts | 188° |
| 2026-04-21 14:52 | 45.52015 | 3.18549 | 33951 ft | 432 kts | 188° |
| 2026-04-21 14:52 | 45.49028 | 3.18472 | 33530 ft | 428 kts | 188° |
| 2026-04-21 14:52 | 45.46064 | 3.18395 | 33119 ft | 426 kts | 188° |
| 2026-04-21 14:53 | 45.43101 | 3.18317 | 32714 ft | 427 kts | 188° |
| 2026-04-21 14:53 | 45.40110 | 3.18236 | 32329 ft | 432 kts | 187° |
| 2026-04-21 14:53 | 45.37084 | 3.18154 | 31948 ft | 438 kts | 187° |
| 2026-04-21 14:53 | 45.34035 | 3.18077 | 31564 ft | 439 kts | 187° |
| 2026-04-21 14:54 | 45.30976 | 3.18003 | 31174 ft | 440 kts | 187° |
| 2026-04-21 14:54 | 45.27916 | 3.17930 | 30802 ft | 440 kts | 187° |
| 2026-04-21 14:54 | 45.24849 | 3.17855 | 30425 ft | 441 kts | 186° |
| 2026-04-21 14:54 | 45.21782 | 3.17780 | 30052 ft | 441 kts | 186° |
| 2026-04-21 14:55 | 45.18708 | 3.17705 | 29637 ft | 442 kts | 186° |
| 2026-04-21 14:55 | 45.15632 | 3.17629 | 29207 ft | 442 kts | 186° |
| 2026-04-21 14:55 | 45.12551 | 3.17553 | 28785 ft | 443 kts | 186° |
| 2026-04-21 14:55 | 45.09466 | 3.17470 | 28321 ft | 444 kts | 187° |
| 2026-04-21 14:56 | 45.06375 | 3.17321 | 27870 ft | 444 kts | 187° |
| 2026-04-21 14:56 | 45.03284 | 3.17134 | 27411 ft | 445 kts | 187° |
| 2026-04-21 14:56 | 45.00191 | 3.16948 | 26971 ft | 445 kts | 187° |
| 2026-04-21 14:56 | 44.97092 | 3.16773 | 26536 ft | 445 kts | 187° |
| 2026-04-21 14:57 | 44.93995 | 3.16625 | 26096 ft | 446 kts | 186° |
| 2026-04-21 14:57 | 44.90892 | 3.16560 | 25678 ft | 446 kts | 185° |
| 2026-04-21 14:57 | 44.87789 | 3.16533 | 25268 ft | 445 kts | 185° |
| 2026-04-21 14:57 | 44.84695 | 3.16514 | 24846 ft | 444 kts | 185° |
| 2026-04-21 14:58 | 44.81613 | 3.16488 | 24439 ft | 442 kts | 185° |
| 2026-04-21 14:58 | 44.78543 | 3.16455 | 24032 ft | 439 kts | 185° |
| 2026-04-21 14:58 | 44.75537 | 3.16415 | 23635 ft | 436 kts | 185° |
| 2026-04-21 14:58 | 44.72511 | 3.16371 | 23191 ft | 433 kts | 185° |
| 2026-04-21 14:59 | 44.69502 | 3.16327 | 22725 ft | 430 kts | 185° |
| 2026-04-21 14:59 | 44.66522 | 3.16283 | 22271 ft | 426 kts | 185° |
| 2026-04-21 14:59 | 44.63572 | 3.16241 | 21814 ft | 422 kts | 185° |
| 2026-04-21 14:59 | 44.60659 | 3.16070 | 21352 ft | 416 kts | 191° |
| 2026-04-21 15:00 | 44.57853 | 3.15303 | 20922 ft | 408 kts | 198° |
| 2026-04-21 15:00 | 44.55121 | 3.14313 | 20499 ft | 404 kts | 199° |
| 2026-04-21 15:00 | 44.52411 | 3.13308 | 20071 ft | 401 kts | 199° |
| 2026-04-21 15:00 | 44.49724 | 3.12318 | 19656 ft | 398 kts | 199° |
| 2026-04-21 15:01 | 44.47050 | 3.11345 | 19242 ft | 396 kts | 198° |
| 2026-04-21 15:01 | 44.44387 | 3.10387 | 18827 ft | 394 kts | 198° |
| 2026-04-21 15:01 | 44.41740 | 3.09444 | 18442 ft | 392 kts | 198° |
| 2026-04-21 15:01 | 44.39096 | 3.08507 | 18018 ft | 391 kts | 198° |
| 2026-04-21 15:02 | 44.36467 | 3.07578 | 17558 ft | 389 kts | 198° |
| 2026-04-21 15:02 | 44.33852 | 3.06656 | 17121 ft | 387 kts | 198° |
| 2026-04-21 15:02 | 44.31251 | 3.05740 | 16672 ft | 385 kts | 198° |
| 2026-04-21 15:02 | 44.28659 | 3.04827 | 16242 ft | 382 kts | 198° |
| 2026-04-21 15:03 | 44.26089 | 3.03923 | 15793 ft | 380 kts | 198° |
| 2026-04-21 15:03 | 44.23533 | 3.03023 | 15395 ft | 378 kts | 198° |
| 2026-04-21 15:03 | 44.21848 | 3.02430 | 15113 ft | 377 kts | 198° |
| 2026-04-21 15:03 | 44.19315 | 3.01540 | 14691 ft | 375 kts | 198° |
| 2026-04-21 15:04 | 44.16792 | 3.00656 | 14282 ft | 372 kts | 198° |
| 2026-04-21 15:04 | 44.14291 | 2.99780 | 13883 ft | 369 kts | 198° |
| 2026-04-21 15:04 | 44.11814 | 2.98912 | 13454 ft | 365 kts | 198° |
| 2026-04-21 15:04 | 44.09360 | 2.98053 | 12984 ft | 361 kts | 198° |
| 2026-04-21 15:05 | 44.06932 | 2.97202 | 12554 ft | 358 kts | 198° |
| 2026-04-21 15:05 | 44.02117 | 2.95518 | 11695 ft | 354 kts | 198° |
| 2026-04-21 15:05 | 43.99733 | 2.94683 | 11271 ft | 352 kts | 197° |
| 2026-04-21 15:06 | 43.97393 | 2.93864 | 10869 ft | 351 kts | 197° |
| 2026-04-21 15:06 | 43.95031 | 2.93039 | 10433 ft | 349 kts | 197° |
| 2026-04-21 15:06 | 43.92688 | 2.92220 | 10042 ft | 347 kts | 197° |
| 2026-04-21 15:06 | 43.90349 | 2.91405 | 9641 ft | 346 kts | 197° |
| 2026-04-21 15:07 | 43.88012 | 2.90590 | 9171 ft | 345 kts | 197° |
| 2026-04-21 15:07 | 43.85689 | 2.89781 | 8739 ft | 343 kts | 196° |
| 2026-04-21 15:07 | 43.83379 | 2.88979 | 8311 ft | 341 kts | 196° |
| 2026-04-21 15:07 | 43.81080 | 2.88179 | 7882 ft | 340 kts | 196° |
| 2026-04-21 15:08 | 43.78787 | 2.87417 | 7457 ft | 339 kts | 191° |
| 2026-04-21 15:08 | 43.76441 | 2.87491 | 7026 ft | 339 kts | 168° |
| 2026-04-21 15:08 | 43.74218 | 2.88571 | 6635 ft | 338 kts | 158° |
| 2026-04-21 15:08 | 43.72051 | 2.89820 | 6221 ft | 337 kts | 158° |
| 2026-04-21 15:09 | 43.69902 | 2.91067 | 5822 ft | 333 kts | 158° |
| 2026-04-21 15:09 | 43.67762 | 2.92307 | 5361 ft | 332 kts | 158° |
| 2026-04-21 15:09 | 43.65634 | 2.93519 | 5095 ft | 328 kts | 159° |
| 2026-04-21 15:09 | 43.63541 | 2.94704 | 4897 ft | 322 kts | 158° |
| 2026-04-21 15:10 | 43.61482 | 2.95880 | 4630 ft | 318 kts | 158° |
| 2026-04-21 15:10 | 43.59449 | 2.97042 | 4426 ft | 316 kts | 158° |
| 2026-04-21 15:10 | 43.57415 | 2.98198 | 4188 ft | 318 kts | 158° |
| 2026-04-21 15:10 | 43.55396 | 2.99339 | 4181 ft | 310 kts | 158° |
| 2026-04-21 15:11 | 43.53402 | 3.00463 | 4153 ft | 311 kts | 158° |
| 2026-04-21 15:11 | 43.51393 | 3.01615 | 4159 ft | 312 kts | 158° |
| 2026-04-21 15:11 | 43.49410 | 3.02727 | 4088 ft | 303 kts | 158° |
| 2026-04-21 15:11 | 43.47488 | 3.03800 | 3829 ft | 291 kts | 158° |
| 2026-04-21 15:12 | 43.45657 | 3.04824 | 3592 ft | 278 kts | 158° |
| 2026-04-21 15:12 | 43.43906 | 3.05805 | 3382 ft | 265 kts | 158° |
| 2026-04-21 15:12 | 43.42255 | 3.06730 | 3179 ft | 247 kts | 158° |
| 2026-04-21 15:12 | 43.40722 | 3.07590 | 3036 ft | 228 kts | 158° |
| 2026-04-21 15:13 | 43.39328 | 3.08373 | 3010 ft | 205 kts | 158° |
| 2026-04-21 15:13 | 43.38057 | 3.09082 | 2918 ft | 190 kts | 158° |
| 2026-04-21 15:13 | 43.36879 | 3.09746 | 2830 ft | 176 kts | 158° |
| 2026-04-21 15:13 | 43.35801 | 3.10347 | 2728 ft | 164 kts | 158° |
| 2026-04-21 15:14 | 43.34762 | 3.10928 | 2652 ft | 167 kts | 158° |
| 2026-04-21 15:14 | 43.33780 | 3.11804 | 2606 ft | 172 kts | 124° |
| 2026-04-21 15:14 | 43.33538 | 3.13319 | 2566 ft | 158 kts | 93° |
| 2026-04-21 15:14 | 43.33477 | 3.14781 | 2425 ft | 148 kts | 96° |
| 2026-04-21 15:15 | 43.33390 | 3.16326 | 2370 ft | 183 kts | 96° |
| 2026-04-21 15:15 | 43.33292 | 3.18107 | 2371 ft | 184 kts | 96° |
| 2026-04-21 15:15 | 43.33202 | 3.19779 | 2238 ft | 165 kts | 96° |
| 2026-04-21 15:15 | 43.33142 | 3.21286 | 1981 ft | 154 kts | 93° |
| 2026-04-21 15:16 | 43.33107 | 3.22678 | 1771 ft | 141 kts | 97° |
| 2026-04-21 15:16 | 43.33033 | 3.24027 | 1661 ft | 140 kts | 96° |
| 2026-04-21 15:16 | 43.32956 | 3.25367 | 1525 ft | 143 kts | 99° |
| 2026-04-21 15:16 | 43.32839 | 3.26737 | 1290 ft | 146 kts | 100° |
| 2026-04-21 15:17 | 43.32755 | 3.28106 | 1051 ft | 142 kts | 96° |
| 2026-04-21 15:17 | 43.32680 | 3.29435 | 838 ft | 137 kts | 98° |
| 2026-04-21 15:17 | 43.32605 | 3.30753 | 625 ft | 143 kts | 99° |
| 2026-04-21 15:17 | 43.32538 | 3.32144 | 376 ft | 148 kts | 97° |
| 2026-04-21 15:18 | 43.32447 | 3.33523 | 183 ft | 141 kts | 99° |
| 2026-04-21 15:18 | 43.32374 | 3.34823 | 58 ft | 126 kts | 95° |
| 2026-04-21 15:18 | 43.32336 | 3.35532 | 54 ft | 41 kts | 94° |
| 2026-04-21 15:18 | 43.32310 | 3.35907 | 53 ft | 37 kts | 96° |
| 2026-04-21 15:19 | 43.32289 | 3.36252 | 51 ft | 35 kts | 94° |
| 2026-04-21 15:19 | 43.32274 | 3.36567 | 49 ft | 19 kts | 95° |
| 2026-04-21 15:19 | 43.32250 | 3.36701 | 50 ft | 6 kts | 117° |
| 2026-04-21 15:19 | 43.32249 | 3.36715 | 48 ft | 0 kts | 91° |
| 2026-04-21 15:20 | 43.32250 | 3.36716 | 48 ft | 0 kts | 72° |
| 2026-04-21 15:20 | 43.32260 | 3.36708 | 50 ft | 4 kts | 313° |
| 2026-04-21 15:20 | 43.32272 | 3.36615 | 49 ft | 16 kts | 272° |
| 2026-04-21 15:20 | 43.32282 | 3.36425 | 51 ft | 24 kts | 274° |
| 2026-04-21 15:21 | 43.32296 | 3.36158 | 48 ft | 32 kts | 274° |
| 2026-04-21 15:21 | 43.32312 | 3.35854 | 53 ft | 31 kts | 274° |
| 2026-04-21 15:21 | 43.32328 | 3.35571 | 53 ft | 29 kts | 274° |
| 2026-04-21 15:21 | 43.32334 | 3.35381 | 51 ft | 9 kts | 258° |
| 2026-04-21 15:22 | 43.32285 | 3.35334 | 54 ft | 9 kts | 184° |
| 2026-04-21 15:22 | 43.32247 | 3.35329 | 55 ft | 0 kts | 185° |
| 2026-04-21 15:22 | 43.32245 | 3.35329 | 55 ft | 2 kts | 185° |
| 2026-04-21 15:22 | 43.32223 | 3.35327 | 55 ft | 4 kts | 183° |
| 2026-04-21 15:23 | 43.32198 | 3.35323 | 55 ft | 4 kts | 193° |
| 2026-04-21 15:23 | 43.32180 | 3.35293 | 52 ft | 5 kts | 256° |
| 2026-04-21 15:23 | 43.32162 | 3.35262 | 52 ft | 4 kts | 198° |
| 2026-04-21 15:24 | 43.32157 | 3.35263 | 53 ft | 1 kts | 177° |
| 2026-04-21 15:24 | 43.32148 | 3.35265 | 53 ft | 2 kts | 171° |
| 2026-04-21 15:24 | 43.32138 | 3.35257 | 55 ft | 2 kts | 231° |
| 2026-04-21 15:24 | 43.32142 | 3.35240 | 54 ft | 2 kts | 310° |
| 2026-04-21 15:25 | 43.32145 | 3.35236 | 55 ft | 0 kts | 314° |